sensor_id;sensor_type;location;lat;lon;timestamp;P1;durP1;ratioP1;P2;durP2;ratioP2
27670;SDS011;15077;49.704;9.908;2022-08-11T00:00:10;1.15;;;0.85;;
27670;SDS011;15077;49.704;9.908;2022-08-11T00:02:39;1.60;;;1.00;;
27670;SDS011;15077;49.704;9.908;2022-08-11T00:05:14;0.95;;;0.80;;
27670;SDS011;15077;49.704;9.908;2022-08-11T00:07:51;1.45;;;1.17;;
27670;SDS011;15077;49.704;9.908;2022-08-11T00:10:23;1.52;;;1.13;;
27670;SDS011;15077;49.704;9.908;2022-08-11T00:12:59;1.90;;;1.48;;
27670;SDS011;15077;49.704;9.908;2022-08-11T00:15:36;1.17;;;0.90;;
27670;SDS011;15077;49.704;9.908;2022-08-11T00:18:09;0.90;;;0.80;;
27670;SDS011;15077;49.704;9.908;2022-08-11T00:20:39;1.55;;;0.95;;
27670;SDS011;15077;49.704;9.908;2022-08-11T00:23:09;1.80;;;1.10;;
27670;SDS011;15077;49.704;9.908;2022-08-11T00:25:39;1.55;;;0.95;;
27670;SDS011;15077;49.704;9.908;2022-08-11T00:30:54;2.22;;;1.33;;
27670;SDS011;15077;49.704;9.908;2022-08-11T00:33:25;1.25;;;0.90;;
27670;SDS011;15077;49.704;9.908;2022-08-11T00:36:08;1.38;;;1.10;;
27670;SDS011;15077;49.704;9.908;2022-08-11T00:38:41;1.42;;;0.88;;
27670;SDS011;15077;49.704;9.908;2022-08-11T01:01:45;1.67;;;0.90;;
27670;SDS011;15077;49.704;9.908;2022-08-11T01:34:15;2.70;;;1.50;;
27670;SDS011;15077;49.704;9.908;2022-08-11T01:46:17;1.35;;;1.00;;
27670;SDS011;15077;49.704;9.908;2022-08-11T01:52:14;1.45;;;1.20;;
27670;SDS011;15077;49.704;9.908;2022-08-11T02:01:19;1.45;;;1.08;;
27670;SDS011;15077;49.704;9.908;2022-08-11T02:13:03;1.40;;;1.20;;
27670;SDS011;15077;49.704;9.908;2022-08-11T02:16:02;1.48;;;1.20;;
27670;SDS011;15077;49.704;9.908;2022-08-11T02:18:41;1.63;;;1.30;;
27670;SDS011;15077;49.704;9.908;2022-08-11T02:21:41;1.38;;;1.25;;
27670;SDS011;15077;49.704;9.908;2022-08-11T02:24:40;2.67;;;1.38;;
27670;SDS011;15077;49.704;9.908;2022-08-11T02:27:17;1.20;;;1.00;;
27670;SDS011;15077;49.704;9.908;2022-08-11T02:29:57;1.60;;;1.15;;
27670;SDS011;15077;49.704;9.908;2022-08-11T02:32:33;1.58;;;1.02;;
27670;SDS011;15077;49.704;9.908;2022-08-11T02:35:45;1.52;;;0.90;;
27670;SDS011;15077;49.704;9.908;2022-08-11T02:38:42;2.13;;;1.30;;
27670;SDS011;15077;49.704;9.908;2022-08-11T02:41:43;2.33;;;1.25;;
27670;SDS011;15077;49.704;9.908;2022-08-11T02:45:01;1.13;;;0.80;;
27670;SDS011;15077;49.704;9.908;2022-08-11T02:47:53;1.02;;;0.93;;
27670;SDS011;15077;49.704;9.908;2022-08-11T02:50:48;1.13;;;0.82;;
27670;SDS011;15077;49.704;9.908;2022-08-11T02:56:20;1.77;;;1.23;;
27670;SDS011;15077;49.704;9.908;2022-08-11T02:59:16;1.42;;;1.00;;
27670;SDS011;15077;49.704;9.908;2022-08-11T03:07:50;1.13;;;1.02;;
27670;SDS011;15077;49.704;9.908;2022-08-11T03:17:23;0.93;;;0.82;;
27670;SDS011;15077;49.704;9.908;2022-08-11T03:20:14;0.98;;;0.80;;
27670;SDS011;15077;49.704;9.908;2022-08-11T03:29:05;1.35;;;1.13;;
27670;SDS011;15077;49.704;9.908;2022-08-11T03:31:58;1.20;;;1.10;;
27670;SDS011;15077;49.704;9.908;2022-08-11T03:34:31;1.63;;;1.00;;
27670;SDS011;15077;49.704;9.908;2022-08-11T03:46:13;1.10;;;0.85;;
27670;SDS011;15077;49.704;9.908;2022-08-11T03:48:55;1.17;;;1.00;;
27670;SDS011;15077;49.704;9.908;2022-08-11T04:15:06;3.40;;;1.40;;
27670;SDS011;15077;49.704;9.908;2022-08-11T04:42:12;2.60;;;1.30;;
27670;SDS011;15077;49.704;9.908;2022-08-11T05:11:34;1.33;;;0.93;;
27670;SDS011;15077;49.704;9.908;2022-08-11T05:14:51;1.00;;;0.85;;
27670;SDS011;15077;49.704;9.908;2022-08-11T05:18:01;1.70;;;1.13;;
27670;SDS011;15077;49.704;9.908;2022-08-11T05:20:53;4.72;;;1.30;;
27670;SDS011;15077;49.704;9.908;2022-08-11T05:23:45;1.50;;;1.10;;
27670;SDS011;15077;49.704;9.908;2022-08-11T05:26:45;1.60;;;1.30;;
27670;SDS011;15077;49.704;9.908;2022-08-11T05:32:35;1.70;;;1.45;;
27670;SDS011;15077;49.704;9.908;2022-08-11T05:35:25;3.67;;;1.90;;
27670;SDS011;15077;49.704;9.908;2022-08-11T05:38:02;2.63;;;1.38;;
27670;SDS011;15077;49.704;9.908;2022-08-11T05:40:55;1.77;;;1.40;;
27670;SDS011;15077;49.704;9.908;2022-08-11T05:43:43;2.08;;;1.38;;
27670;SDS011;15077;49.704;9.908;2022-08-11T05:46:28;2.10;;;1.67;;
27670;SDS011;15077;49.704;9.908;2022-08-11T05:49:21;2.42;;;2.10;;
27670;SDS011;15077;49.704;9.908;2022-08-11T05:52:12;2.08;;;1.73;;
27670;SDS011;15077;49.704;9.908;2022-08-11T05:55:04;2.95;;;2.15;;
27670;SDS011;15077;49.704;9.908;2022-08-11T05:58:00;3.72;;;2.00;;
27670;SDS011;15077;49.704;9.908;2022-08-11T06:00:30;1.63;;;1.48;;
27670;SDS011;15077;49.704;9.908;2022-08-11T06:03:06;2.53;;;1.70;;
27670;SDS011;15077;49.704;9.908;2022-08-11T06:05:35;2.38;;;1.98;;
27670;SDS011;15077;49.704;9.908;2022-08-11T06:08:04;2.25;;;1.85;;
27670;SDS011;15077;49.704;9.908;2022-08-11T06:10:33;3.60;;;2.05;;
27670;SDS011;15077;49.704;9.908;2022-08-11T06:13:02;3.72;;;1.98;;
27670;SDS011;15077;49.704;9.908;2022-08-11T06:15:32;3.28;;;2.08;;
27670;SDS011;15077;49.704;9.908;2022-08-11T06:18:08;2.80;;;1.92;;
27670;SDS011;15077;49.704;9.908;2022-08-11T06:20:46;3.50;;;2.20;;
27670;SDS011;15077;49.704;9.908;2022-08-11T06:23:22;2.85;;;1.92;;
27670;SDS011;15077;49.704;9.908;2022-08-11T06:25:56;3.38;;;2.30;;
27670;SDS011;15077;49.704;9.908;2022-08-11T06:28:30;2.67;;;2.10;;
27670;SDS011;15077;49.704;9.908;2022-08-11T06:31:01;3.80;;;2.38;;
27670;SDS011;15077;49.704;9.908;2022-08-11T06:33:45;3.30;;;2.63;;
27670;SDS011;15077;49.704;9.908;2022-08-11T06:36:38;4.03;;;3.03;;
27670;SDS011;15077;49.704;9.908;2022-08-11T06:39:26;3.78;;;3.22;;
27670;SDS011;15077;49.704;9.908;2022-08-11T06:42:08;2.85;;;2.28;;
27670;SDS011;15077;49.704;9.908;2022-08-11T06:47:19;2.55;;;1.85;;
27670;SDS011;15077;49.704;9.908;2022-08-11T06:49:46;4.78;;;2.17;;
27670;SDS011;15077;49.704;9.908;2022-08-11T06:52:35;3.63;;;2.78;;
27670;SDS011;15077;49.704;9.908;2022-08-11T06:55:07;5.88;;;2.83;;
27670;SDS011;15077;49.704;9.908;2022-08-11T06:57:58;2.40;;;1.95;;
27670;SDS011;15077;49.704;9.908;2022-08-11T07:00:47;3.13;;;2.50;;
27670;SDS011;15077;49.704;9.908;2022-08-11T07:03:21;1.92;;;1.50;;
27670;SDS011;15077;49.704;9.908;2022-08-11T07:05:51;2.72;;;2.10;;
27670;SDS011;15077;49.704;9.908;2022-08-11T07:15:05;3.38;;;2.15;;
27670;SDS011;15077;49.704;9.908;2022-08-11T07:17:54;2.63;;;2.42;;
27670;SDS011;15077;49.704;9.908;2022-08-11T07:20:46;2.83;;;2.30;;
27670;SDS011;15077;49.704;9.908;2022-08-11T07:23:33;3.58;;;2.00;;
27670;SDS011;15077;49.704;9.908;2022-08-11T07:26:21;7.78;;;1.98;;
27670;SDS011;15077;49.704;9.908;2022-08-11T07:29:09;3.22;;;2.20;;
27670;SDS011;15077;49.704;9.908;2022-08-11T07:31:45;3.85;;;2.20;;
27670;SDS011;15077;49.704;9.908;2022-08-11T07:34:21;2.13;;;1.92;;
27670;SDS011;15077;49.704;9.908;2022-08-11T07:37:11;4.85;;;2.63;;
27670;SDS011;15077;49.704;9.908;2022-08-11T07:39:42;3.50;;;2.63;;
27670;SDS011;15077;49.704;9.908;2022-08-11T07:42:11;4.15;;;2.58;;
27670;SDS011;15077;49.704;9.908;2022-08-11T07:44:40;2.95;;;2.00;;
27670;SDS011;15077;49.704;9.908;2022-08-11T07:47:27;2.85;;;2.38;;
27670;SDS011;15077;49.704;9.908;2022-08-11T07:50:12;3.83;;;2.65;;
27670;SDS011;15077;49.704;9.908;2022-08-11T07:52:58;5.57;;;2.63;;
27670;SDS011;15077;49.704;9.908;2022-08-11T07:55:26;5.47;;;3.00;;
27670;SDS011;15077;49.704;9.908;2022-08-11T07:57:55;3.22;;;2.42;;
27670;SDS011;15077;49.704;9.908;2022-08-11T08:00:54;2.88;;;2.22;;
27670;SDS011;15077;49.704;9.908;2022-08-11T08:03:41;2.85;;;1.90;;
27670;SDS011;15077;49.704;9.908;2022-08-11T08:06:28;4.40;;;2.40;;
27670;SDS011;15077;49.704;9.908;2022-08-11T08:09:15;3.28;;;2.28;;
27670;SDS011;15077;49.704;9.908;2022-08-11T08:12:02;3.05;;;2.15;;
27670;SDS011;15077;49.704;9.908;2022-08-11T08:14:48;2.33;;;2.10;;
27670;SDS011;15077;49.704;9.908;2022-08-11T08:17:35;3.38;;;2.67;;
27670;SDS011;15077;49.704;9.908;2022-08-11T08:20:15;4.22;;;2.47;;
27670;SDS011;15077;49.704;9.908;2022-08-11T08:22:49;3.28;;;2.25;;
27670;SDS011;15077;49.704;9.908;2022-08-11T08:25:31;2.70;;;2.20;;
27670;SDS011;15077;49.704;9.908;2022-08-11T08:28:02;2.47;;;2.10;;
27670;SDS011;15077;49.704;9.908;2022-08-11T08:30:33;2.63;;;2.00;;
27670;SDS011;15077;49.704;9.908;2022-08-11T08:38:41;4.45;;;2.03;;
27670;SDS011;15077;49.704;9.908;2022-08-11T08:41:13;2.75;;;2.30;;
27670;SDS011;15077;49.704;9.908;2022-08-11T08:43:52;5.15;;;2.33;;
27670;SDS011;15077;49.704;9.908;2022-08-11T08:46:24;3.63;;;2.10;;
27670;SDS011;15077;49.704;9.908;2022-08-11T08:49:18;2.35;;;1.95;;
27670;SDS011;15077;49.704;9.908;2022-08-11T08:51:56;2.67;;;1.80;;
27670;SDS011;15077;49.704;9.908;2022-08-11T08:54:37;3.90;;;2.45;;
27670;SDS011;15077;49.704;9.908;2022-08-11T08:57:07;3.60;;;2.20;;
27670;SDS011;15077;49.704;9.908;2022-08-11T08:59:40;5.15;;;2.53;;
27670;SDS011;15077;49.704;9.908;2022-08-11T09:02:10;3.88;;;2.85;;
27670;SDS011;15077;49.704;9.908;2022-08-11T09:04:37;2.80;;;1.77;;
27670;SDS011;15077;49.704;9.908;2022-08-11T09:07:10;2.00;;;1.70;;
27670;SDS011;15077;49.704;9.908;2022-08-11T09:09:48;2.58;;;2.00;;
27670;SDS011;15077;49.704;9.908;2022-08-11T09:12:18;3.65;;;2.60;;
27670;SDS011;15077;49.704;9.908;2022-08-11T09:14:47;2.95;;;2.38;;
27670;SDS011;15077;49.704;9.908;2022-08-11T09:22:55;3.83;;;2.65;;
27670;SDS011;15077;49.704;9.908;2022-08-11T09:25:42;3.45;;;2.17;;
27670;SDS011;15077;49.704;9.908;2022-08-11T09:28:28;2.75;;;2.08;;
27670;SDS011;15077;49.704;9.908;2022-08-11T09:30:56;4.25;;;2.00;;
27670;SDS011;15077;49.704;9.908;2022-08-11T09:33:25;3.20;;;2.30;;
27670;SDS011;15077;49.704;9.908;2022-08-11T09:35:53;4.95;;;2.95;;
27670;SDS011;15077;49.704;9.908;2022-08-11T09:38:21;4.63;;;2.63;;
27670;SDS011;15077;49.704;9.908;2022-08-11T09:41:09;4.07;;;2.40;;
27670;SDS011;15077;49.704;9.908;2022-08-11T09:43:38;3.55;;;3.03;;
27670;SDS011;15077;49.704;9.908;2022-08-11T09:46:27;3.83;;;2.70;;
27670;SDS011;15077;49.704;9.908;2022-08-11T09:48:57;4.85;;;2.70;;
27670;SDS011;15077;49.704;9.908;2022-08-11T09:51:25;3.00;;;2.47;;
27670;SDS011;15077;49.704;9.908;2022-08-11T09:53:56;2.78;;;2.15;;
27670;SDS011;15077;49.704;9.908;2022-08-11T09:56:30;3.85;;;2.45;;
27670;SDS011;15077;49.704;9.908;2022-08-11T09:59:17;2.58;;;2.03;;
27670;SDS011;15077;49.704;9.908;2022-08-11T10:01:46;3.00;;;2.33;;
27670;SDS011;15077;49.704;9.908;2022-08-11T10:04:25;2.65;;;2.17;;
27670;SDS011;15077;49.704;9.908;2022-08-11T10:07:05;3.03;;;2.15;;
27670;SDS011;15077;49.704;9.908;2022-08-11T10:09:36;2.30;;;2.10;;
27670;SDS011;15077;49.704;9.908;2022-08-11T10:12:09;2.47;;;2.00;;
27670;SDS011;15077;49.704;9.908;2022-08-11T10:14:49;3.10;;;1.90;;
27670;SDS011;15077;49.704;9.908;2022-08-11T10:18:05;2.92;;;1.90;;
27670;SDS011;15077;49.704;9.908;2022-08-11T10:20:58;2.47;;;1.98;;
27670;SDS011;15077;49.704;9.908;2022-08-11T10:23:29;3.08;;;1.70;;
27670;SDS011;15077;49.704;9.908;2022-08-11T10:26:18;2.30;;;1.92;;
27670;SDS011;15077;49.704;9.908;2022-08-11T10:29:05;2.63;;;1.92;;
27670;SDS011;15077;49.704;9.908;2022-08-11T10:31:52;2.75;;;2.08;;
27670;SDS011;15077;49.704;9.908;2022-08-11T10:34:39;3.45;;;1.75;;
27670;SDS011;15077;49.704;9.908;2022-08-11T10:37:09;2.80;;;1.80;;
27670;SDS011;15077;49.704;9.908;2022-08-11T10:39:36;2.42;;;2.10;;
27670;SDS011;15077;49.704;9.908;2022-08-11T10:42:04;2.38;;;1.95;;
27670;SDS011;15077;49.704;9.908;2022-08-11T10:44:52;5.05;;;2.30;;
27670;SDS011;15077;49.704;9.908;2022-08-11T10:47:21;2.17;;;1.45;;
27670;SDS011;15077;49.704;9.908;2022-08-11T10:49:59;2.88;;;2.10;;
27670;SDS011;15077;49.704;9.908;2022-08-11T10:53:02;2.25;;;2.05;;
27670;SDS011;15077;49.704;9.908;2022-08-11T10:55:47;2.42;;;1.85;;
27670;SDS011;15077;49.704;9.908;2022-08-11T10:58:33;1.95;;;1.75;;
27670;SDS011;15077;49.704;9.908;2022-08-11T11:01:12;1.95;;;1.75;;
27670;SDS011;15077;49.704;9.908;2022-08-11T11:03:41;3.22;;;2.20;;
27670;SDS011;15077;49.704;9.908;2022-08-11T11:08:51;2.80;;;2.08;;
27670;SDS011;15077;49.704;9.908;2022-08-11T11:11:25;1.95;;;1.60;;
27670;SDS011;15077;49.704;9.908;2022-08-11T11:14:20;1.90;;;1.30;;
27670;SDS011;15077;49.704;9.908;2022-08-11T11:17:11;2.90;;;2.15;;
27670;SDS011;15077;49.704;9.908;2022-08-11T11:19:58;1.98;;;1.42;;
27670;SDS011;15077;49.704;9.908;2022-08-11T11:22:29;2.47;;;2.05;;
27670;SDS011;15077;49.704;9.908;2022-08-11T11:30:49;1.60;;;1.42;;
27670;SDS011;15077;49.704;9.908;2022-08-11T11:36:56;2.92;;;1.90;;
27670;SDS011;15077;49.704;9.908;2022-08-11T11:39:28;3.83;;;1.63;;
27670;SDS011;15077;49.704;9.908;2022-08-11T11:41:58;2.15;;;1.83;;
27670;SDS011;15077;49.704;9.908;2022-08-11T11:44:38;2.35;;;1.58;;
27670;SDS011;15077;49.704;9.908;2022-08-11T11:47:09;1.90;;;1.48;;
27670;SDS011;15077;49.704;9.908;2022-08-11T11:49:37;2.22;;;1.77;;
27670;SDS011;15077;49.704;9.908;2022-08-11T11:52:08;1.90;;;1.67;;
27670;SDS011;15077;49.704;9.908;2022-08-11T11:54:46;2.40;;;1.70;;
27670;SDS011;15077;49.704;9.908;2022-08-11T11:57:18;1.95;;;1.40;;
27670;SDS011;15077;49.704;9.908;2022-08-11T12:00:05;2.35;;;1.67;;
27670;SDS011;15077;49.704;9.908;2022-08-11T12:02:52;2.10;;;1.40;;
27670;SDS011;15077;49.704;9.908;2022-08-11T12:05:22;2.45;;;1.40;;
27670;SDS011;15077;49.704;9.908;2022-08-11T12:07:49;2.30;;;1.80;;
27670;SDS011;15077;49.704;9.908;2022-08-11T12:10:57;1.83;;;1.55;;
27670;SDS011;15077;49.704;9.908;2022-08-11T12:13:46;1.92;;;1.30;;
27670;SDS011;15077;49.704;9.908;2022-08-11T12:16:17;1.42;;;1.25;;
27670;SDS011;15077;49.704;9.908;2022-08-11T12:18:46;2.00;;;1.60;;
27670;SDS011;15077;49.704;9.908;2022-08-11T12:21:17;3.00;;;1.60;;
27670;SDS011;15077;49.704;9.908;2022-08-11T12:23:44;2.22;;;1.63;;
27670;SDS011;15077;49.704;9.908;2022-08-11T12:26:31;2.05;;;1.60;;
27670;SDS011;15077;49.704;9.908;2022-08-11T12:29:14;2.03;;;1.40;;
27670;SDS011;15077;49.704;9.908;2022-08-11T12:31:43;3.22;;;1.63;;
27670;SDS011;15077;49.704;9.908;2022-08-11T12:34:14;4.25;;;1.60;;
27670;SDS011;15077;49.704;9.908;2022-08-11T12:36:45;1.77;;;1.60;;
27670;SDS011;15077;49.704;9.908;2022-08-11T12:39:19;4.28;;;1.63;;
27670;SDS011;15077;49.704;9.908;2022-08-11T12:42:08;2.10;;;1.80;;
27670;SDS011;15077;49.704;9.908;2022-08-11T12:44:56;1.70;;;1.52;;
27670;SDS011;15077;49.704;9.908;2022-08-11T12:47:43;3.17;;;1.70;;
27670;SDS011;15077;49.704;9.908;2022-08-11T12:50:35;3.13;;;1.65;;
27670;SDS011;15077;49.704;9.908;2022-08-11T12:53:28;4.45;;;1.75;;
27670;SDS011;15077;49.704;9.908;2022-08-11T12:56:03;3.42;;;1.50;;
27670;SDS011;15077;49.704;9.908;2022-08-11T12:58:50;2.80;;;1.70;;
27670;SDS011;15077;49.704;9.908;2022-08-11T13:01:17;2.85;;;1.60;;
27670;SDS011;15077;49.704;9.908;2022-08-11T13:04:03;1.88;;;1.45;;
27670;SDS011;15077;49.704;9.908;2022-08-11T13:06:48;1.48;;;1.38;;
27670;SDS011;15077;49.704;9.908;2022-08-11T13:09:16;2.97;;;1.60;;
27670;SDS011;15077;49.704;9.908;2022-08-11T13:11:44;2.80;;;1.70;;
27670;SDS011;15077;49.704;9.908;2022-08-11T13:14:30;3.65;;;1.40;;
27670;SDS011;15077;49.704;9.908;2022-08-11T13:16:58;2.83;;;1.40;;
27670;SDS011;15077;49.704;9.908;2022-08-11T13:19:43;2.42;;;1.60;;
27670;SDS011;15077;49.704;9.908;2022-08-11T13:22:12;5.70;;;1.50;;
27670;SDS011;15077;49.704;9.908;2022-08-11T13:24:42;2.00;;;1.52;;
27670;SDS011;15077;49.704;9.908;2022-08-11T13:27:10;1.70;;;1.40;;
27670;SDS011;15077;49.704;9.908;2022-08-11T13:29:36;1.17;;;1.05;;
27670;SDS011;15077;49.704;9.908;2022-08-11T13:32:06;1.98;;;1.42;;
27670;SDS011;15077;49.704;9.908;2022-08-11T13:34:34;2.10;;;1.50;;
27670;SDS011;15077;49.704;9.908;2022-08-11T13:37:05;1.40;;;1.13;;
27670;SDS011;15077;49.704;9.908;2022-08-11T13:39:34;1.77;;;1.48;;
27670;SDS011;15077;49.704;9.908;2022-08-11T13:42:02;1.63;;;1.40;;
27670;SDS011;15077;49.704;9.908;2022-08-11T13:44:29;2.92;;;1.70;;
27670;SDS011;15077;49.704;9.908;2022-08-11T13:47:03;1.73;;;1.42;;
27670;SDS011;15077;49.704;9.908;2022-08-11T13:49:34;5.00;;;1.52;;
27670;SDS011;15077;49.704;9.908;2022-08-11T13:54:39;3.00;;;1.55;;
27670;SDS011;15077;49.704;9.908;2022-08-11T13:57:07;2.20;;;1.75;;
27670;SDS011;15077;49.704;9.908;2022-08-11T13:59:36;2.17;;;1.58;;
27670;SDS011;15077;49.704;9.908;2022-08-11T14:02:04;1.27;;;1.17;;
27670;SDS011;15077;49.704;9.908;2022-08-11T14:04:42;1.75;;;1.45;;
27670;SDS011;15077;49.704;9.908;2022-08-11T14:07:20;4.28;;;1.90;;
27670;SDS011;15077;49.704;9.908;2022-08-11T14:09:48;1.90;;;1.70;;
27670;SDS011;15077;49.704;9.908;2022-08-11T14:12:26;2.20;;;1.70;;
27670;SDS011;15077;49.704;9.908;2022-08-11T14:15:35;2.08;;;1.50;;
27670;SDS011;15077;49.704;9.908;2022-08-11T14:18:08;2.92;;;1.58;;
27670;SDS011;15077;49.704;9.908;2022-08-11T14:20:56;3.30;;;1.50;;
27670;SDS011;15077;49.704;9.908;2022-08-11T14:23:51;2.03;;;1.50;;
27670;SDS011;15077;49.704;9.908;2022-08-11T14:26:23;3.85;;;1.40;;
27670;SDS011;15077;49.704;9.908;2022-08-11T14:28:58;2.13;;;1.65;;
27670;SDS011;15077;49.704;9.908;2022-08-11T14:31:32;1.90;;;1.70;;
27670;SDS011;15077;49.704;9.908;2022-08-11T14:34:04;1.80;;;1.33;;
27670;SDS011;15077;49.704;9.908;2022-08-11T14:36:35;2.20;;;1.70;;
27670;SDS011;15077;49.704;9.908;2022-08-11T14:39:07;1.50;;;1.40;;
27670;SDS011;15077;49.704;9.908;2022-08-11T14:41:40;2.53;;;1.40;;
27670;SDS011;15077;49.704;9.908;2022-08-11T14:44:38;2.53;;;1.23;;
27670;SDS011;15077;49.704;9.908;2022-08-11T14:47:35;4.68;;;2.10;;
27670;SDS011;15077;49.704;9.908;2022-08-11T14:50:05;3.15;;;1.45;;
27670;SDS011;15077;49.704;9.908;2022-08-11T14:52:42;2.22;;;1.63;;
27670;SDS011;15077;49.704;9.908;2022-08-11T14:55:26;2.55;;;1.20;;
27670;SDS011;15077;49.704;9.908;2022-08-11T14:58:15;1.70;;;1.58;;
27670;SDS011;15077;49.704;9.908;2022-08-11T15:00:44;2.90;;;1.50;;
27670;SDS011;15077;49.704;9.908;2022-08-11T15:03:11;1.60;;;1.40;;
27670;SDS011;15077;49.704;9.908;2022-08-11T15:05:40;1.92;;;1.50;;
27670;SDS011;15077;49.704;9.908;2022-08-11T15:08:17;1.65;;;1.38;;
27670;SDS011;15077;49.704;9.908;2022-08-11T15:11:05;2.00;;;1.40;;
27670;SDS011;15077;49.704;9.908;2022-08-11T15:13:54;3.15;;;1.63;;
27670;SDS011;15077;49.704;9.908;2022-08-11T15:16:21;1.45;;;1.15;;
27670;SDS011;15077;49.704;9.908;2022-08-11T15:19:08;3.75;;;1.90;;
27670;SDS011;15077;49.704;9.908;2022-08-11T15:21:36;1.35;;;1.20;;
27670;SDS011;15077;49.704;9.908;2022-08-11T15:24:21;1.88;;;1.55;;
27670;SDS011;15077;49.704;9.908;2022-08-11T15:26:48;2.15;;;1.55;;
27670;SDS011;15077;49.704;9.908;2022-08-11T15:29:36;2.17;;;1.33;;
27670;SDS011;15077;49.704;9.908;2022-08-11T15:32:24;1.67;;;1.27;;
27670;SDS011;15077;49.704;9.908;2022-08-11T15:35:10;1.85;;;1.05;;
27670;SDS011;15077;49.704;9.908;2022-08-11T15:37:59;1.90;;;1.35;;
27670;SDS011;15077;49.704;9.908;2022-08-11T15:40:29;1.58;;;1.42;;
27670;SDS011;15077;49.704;9.908;2022-08-11T15:46:31;4.40;;;1.33;;
27670;SDS011;15077;49.704;9.908;2022-08-11T15:49:17;2.47;;;1.50;;
27670;SDS011;15077;49.704;9.908;2022-08-11T15:51:56;2.78;;;1.30;;
27670;SDS011;15077;49.704;9.908;2022-08-11T15:54:30;1.60;;;1.20;;
27670;SDS011;15077;49.704;9.908;2022-08-11T15:56:58;2.85;;;1.58;;
27670;SDS011;15077;49.704;9.908;2022-08-11T15:59:30;1.83;;;1.30;;
27670;SDS011;15077;49.704;9.908;2022-08-11T16:02:20;2.13;;;1.40;;
27670;SDS011;15077;49.704;9.908;2022-08-11T16:05:11;1.38;;;1.25;;
27670;SDS011;15077;49.704;9.908;2022-08-11T16:07:41;2.30;;;1.65;;
27670;SDS011;15077;49.704;9.908;2022-08-11T16:10:14;2.78;;;1.60;;
27670;SDS011;15077;49.704;9.908;2022-08-11T16:15:32;1.85;;;1.40;;
27670;SDS011;15077;49.704;9.908;2022-08-11T16:18:29;2.65;;;1.10;;
27670;SDS011;15077;49.704;9.908;2022-08-11T16:21:11;1.20;;;1.05;;
27670;SDS011;15077;49.704;9.908;2022-08-11T16:23:42;1.83;;;1.27;;
27670;SDS011;15077;49.704;9.908;2022-08-11T16:26:13;2.58;;;1.35;;
27670;SDS011;15077;49.704;9.908;2022-08-11T16:28:47;1.92;;;1.35;;
27670;SDS011;15077;49.704;9.908;2022-08-11T16:31:20;2.75;;;1.42;;
27670;SDS011;15077;49.704;9.908;2022-08-11T16:33:48;1.60;;;1.40;;
27670;SDS011;15077;49.704;9.908;2022-08-11T16:36:18;2.33;;;1.73;;
27670;SDS011;15077;49.704;9.908;2022-08-11T16:39:06;1.92;;;1.33;;
27670;SDS011;15077;49.704;9.908;2022-08-11T16:41:34;1.55;;;1.45;;
27670;SDS011;15077;49.704;9.908;2022-08-11T16:44:23;1.83;;;1.33;;
27670;SDS011;15077;49.704;9.908;2022-08-11T16:47:12;1.85;;;1.38;;
27670;SDS011;15077;49.704;9.908;2022-08-11T16:49:48;1.27;;;1.17;;
27670;SDS011;15077;49.704;9.908;2022-08-11T16:52:18;2.97;;;1.70;;
27670;SDS011;15077;49.704;9.908;2022-08-11T16:54:47;1.40;;;1.20;;
27670;SDS011;15077;49.704;9.908;2022-08-11T16:57:21;1.75;;;1.13;;
27670;SDS011;15077;49.704;9.908;2022-08-11T17:00:10;2.00;;;1.50;;
27670;SDS011;15077;49.704;9.908;2022-08-11T17:03:00;3.03;;;1.58;;
27670;SDS011;15077;49.704;9.908;2022-08-11T17:05:47;2.20;;;1.40;;
27670;SDS011;15077;49.704;9.908;2022-08-11T17:08:42;1.58;;;1.25;;
27670;SDS011;15077;49.704;9.908;2022-08-11T17:11:35;2.03;;;1.25;;
27670;SDS011;15077;49.704;9.908;2022-08-11T17:14:48;1.55;;;1.40;;
27670;SDS011;15077;49.704;9.908;2022-08-11T17:17:29;2.72;;;1.80;;
27670;SDS011;15077;49.704;9.908;2022-08-11T17:20:03;3.88;;;1.55;;
27670;SDS011;15077;49.704;9.908;2022-08-11T17:22:34;1.75;;;1.38;;
27670;SDS011;15077;49.704;9.908;2022-08-11T17:25:21;3.33;;;1.70;;
27670;SDS011;15077;49.704;9.908;2022-08-11T17:27:56;3.22;;;1.55;;
27670;SDS011;15077;49.704;9.908;2022-08-11T17:30:24;1.75;;;1.20;;
27670;SDS011;15077;49.704;9.908;2022-08-11T17:33:14;1.92;;;1.20;;
27670;SDS011;15077;49.704;9.908;2022-08-11T17:35:59;3.03;;;1.45;;
27670;SDS011;15077;49.704;9.908;2022-08-11T17:38:27;2.38;;;1.60;;
27670;SDS011;15077;49.704;9.908;2022-08-11T17:40:57;2.03;;;1.10;;
27670;SDS011;15077;49.704;9.908;2022-08-11T17:43:48;3.53;;;1.25;;
27670;SDS011;15077;49.704;9.908;2022-08-11T17:46:36;2.22;;;1.30;;
27670;SDS011;15077;49.704;9.908;2022-08-11T17:49:23;1.55;;;1.17;;
27670;SDS011;15077;49.704;9.908;2022-08-11T17:51:50;1.15;;;0.90;;
27670;SDS011;15077;49.704;9.908;2022-08-11T17:54:36;1.05;;;0.85;;
27670;SDS011;15077;49.704;9.908;2022-08-11T17:57:24;1.08;;;0.68;;
27670;SDS011;15077;49.704;9.908;2022-08-11T18:00:12;0.98;;;0.80;;
27670;SDS011;15077;49.704;9.908;2022-08-11T18:02:40;1.80;;;1.00;;
27670;SDS011;15077;49.704;9.908;2022-08-11T18:05:28;2.17;;;0.90;;
27670;SDS011;15077;49.704;9.908;2022-08-11T18:08:00;1.10;;;0.73;;
27670;SDS011;15077;49.704;9.908;2022-08-11T18:13:37;0.60;;;0.50;;
27670;SDS011;15077;49.704;9.908;2022-08-11T18:16:26;1.35;;;0.68;;
27670;SDS011;15077;49.704;9.908;2022-08-11T18:19:11;0.63;;;0.50;;
27670;SDS011;15077;49.704;9.908;2022-08-11T18:22:16;1.50;;;0.93;;
27670;SDS011;15077;49.704;9.908;2022-08-11T18:25:09;1.75;;;0.77;;
27670;SDS011;15077;49.704;9.908;2022-08-11T18:27:58;0.68;;;0.60;;
27670;SDS011;15077;49.704;9.908;2022-08-11T18:30:49;0.85;;;0.63;;
27670;SDS011;15077;49.704;9.908;2022-08-11T18:33:40;0.90;;;0.63;;
27670;SDS011;15077;49.704;9.908;2022-08-11T18:36:45;2.72;;;0.60;;
27670;SDS011;15077;49.704;9.908;2022-08-11T18:39:43;7.28;;;0.90;;
27670;SDS011;15077;49.704;9.908;2022-08-11T18:42:32;0.90;;;0.60;;
27670;SDS011;15077;49.704;9.908;2022-08-11T18:45:21;1.00;;;0.70;;
27670;SDS011;15077;49.704;9.908;2022-08-11T18:48:07;0.95;;;0.70;;
27670;SDS011;15077;49.704;9.908;2022-08-11T18:50:58;1.15;;;0.70;;
27670;SDS011;15077;49.704;9.908;2022-08-11T18:53:48;1.63;;;1.05;;
27670;SDS011;15077;49.704;9.908;2022-08-11T18:59:27;0.80;;;0.50;;
27670;SDS011;15077;49.704;9.908;2022-08-11T19:02:16;0.95;;;0.60;;
27670;SDS011;15077;49.704;9.908;2022-08-11T19:05:07;1.50;;;0.82;;
27670;SDS011;15077;49.704;9.908;2022-08-11T19:07:56;1.02;;;0.75;;
27670;SDS011;15077;49.704;9.908;2022-08-11T19:10:44;0.88;;;0.65;;
27670;SDS011;15077;49.704;9.908;2022-08-11T19:13:31;2.47;;;0.82;;
27670;SDS011;15077;49.704;9.908;2022-08-11T19:16:19;0.82;;;0.68;;
27670;SDS011;15077;49.704;9.908;2022-08-11T19:19:09;0.90;;;0.60;;
27670;SDS011;15077;49.704;9.908;2022-08-11T19:21:57;1.15;;;0.70;;
27670;SDS011;15077;49.704;9.908;2022-08-11T19:24:44;1.20;;;0.73;;
27670;SDS011;15077;49.704;9.908;2022-08-11T19:27:31;2.13;;;0.70;;
27670;SDS011;15077;49.704;9.908;2022-08-11T19:30:17;1.67;;;0.70;;
27670;SDS011;15077;49.704;9.908;2022-08-11T19:33:02;0.95;;;0.70;;
27670;SDS011;15077;49.704;9.908;2022-08-11T19:35:47;2.08;;;0.80;;
27670;SDS011;15077;49.704;9.908;2022-08-11T19:38:33;1.00;;;0.65;;
27670;SDS011;15077;49.704;9.908;2022-08-11T19:41:20;0.80;;;0.55;;
27670;SDS011;15077;49.704;9.908;2022-08-11T19:44:07;1.33;;;0.50;;
27670;SDS011;15077;49.704;9.908;2022-08-11T19:46:53;1.17;;;0.63;;
27670;SDS011;15077;49.704;9.908;2022-08-11T19:49:39;1.00;;;0.68;;
27670;SDS011;15077;49.704;9.908;2022-08-11T19:52:27;1.20;;;0.70;;
27670;SDS011;15077;49.704;9.908;2022-08-11T19:55:12;1.05;;;0.52;;
27670;SDS011;15077;49.704;9.908;2022-08-11T19:58:00;1.45;;;0.75;;
27670;SDS011;15077;49.704;9.908;2022-08-11T20:00:45;1.67;;;0.80;;
27670;SDS011;15077;49.704;9.908;2022-08-11T20:03:31;1.40;;;0.73;;